createdAt,value
2023-02-27T00:01:55.765Z,102520.03
2023-02-27T00:04:22.459Z,102513.09
2023-02-27T00:06:48.991Z,102519.88
2023-02-27T00:09:15.517Z,102518.00
2023-02-27T00:11:43.378Z,102520.47
2023-02-27T00:14:10.014Z,102520.41
2023-02-27T00:16:36.948Z,102532.34
2023-02-27T00:19:04.957Z,102526.28
2023-02-27T00:21:33.526Z,102524.63
2023-02-27T00:24:01.229Z,102522.81
2023-02-27T00:26:28.201Z,102518.66
2023-02-27T00:28:54.691Z,102518.53
2023-02-27T00:31:21.339Z,102514.09
2023-02-27T00:33:50.505Z,102514.13
2023-02-27T00:36:16.995Z,102517.47
2023-02-27T00:38:43.504Z,102514.13
2023-02-27T00:41:09.997Z,102516.53
2023-02-27T00:43:36.494Z,102510.53
2023-02-27T00:46:03.190Z,102516.50
2023-02-27T00:48:29.748Z,102511.34
2023-02-27T00:50:58.496Z,102507.03
2023-02-27T00:53:25.090Z,102510.38
2023-02-27T00:55:51.664Z,102505.41
2023-02-27T00:58:18.217Z,102504.47
2023-02-27T01:00:44.792Z,102500.91
2023-02-27T01:03:11.401Z,102498.25
2023-02-27T01:05:37.999Z,102493.91
2023-02-27T01:08:04.779Z,102498.22
2023-02-27T01:10:31.319Z,102504.97
2023-02-27T01:12:57.809Z,102502.34
2023-02-27T01:15:24.620Z,102499.75
2023-02-27T01:17:51.990Z,102502.34
2023-02-27T01:20:18.632Z,102509.31
2023-02-27T01:22:45.122Z,102505.88
2023-02-27T01:25:11.688Z,102505.03
2023-02-27T01:27:38.276Z,102509.28
2023-02-27T01:30:06.940Z,102508.44
2023-02-27T01:32:33.523Z,102509.28
2023-02-27T01:35:00.249Z,102506.72
2023-02-27T01:37:26.849Z,102505.03
2023-02-27T01:39:53.412Z,102503.31
2023-02-27T01:42:26.142Z,102505.84
2023-02-27T01:45:24.234Z,102505.03
2023-02-27T01:47:56.027Z,102509.22
2023-02-27T01:50:23.692Z,102507.38
2023-02-27T01:52:55.204Z,102502.22
2023-02-27T01:55:23.076Z,102502.25
2023-02-27T01:57:51.146Z,102510.75
2023-02-27T02:00:18.517Z,102514.19
2023-02-27T02:03:05.438Z,102509.09
2023-02-27T02:05:31.985Z,102501.41
2023-02-27T02:07:59.036Z,102508.25
2023-02-27T02:10:26.548Z,102508.34
2023-02-27T02:12:53.713Z,102505.69
2023-02-27T02:15:25.636Z,102513.38
2023-02-27T02:18:07.372Z,102508.19
2023-02-27T02:21:14.552Z,102506.38
2023-02-27T02:24:13.230Z,102511.47
2023-02-27T02:26:49.474Z,102508.91
2023-02-27T02:29:35.128Z,102511.16
2023-02-27T02:32:15.884Z,102505.19
2023-02-27T02:34:51.430Z,102495.78
2023-02-27T02:37:38.895Z,102508.53
2023-02-27T02:40:25.393Z,102510.06
2023-02-27T02:43:03.369Z,102509.19
2023-02-27T02:45:40.414Z,102511.75
2023-02-27T02:48:21.330Z,102512.66
2023-02-27T02:51:17.383Z,102512.66
2023-02-27T02:54:11.663Z,102518.63
2023-02-27T02:56:50.937Z,102515.34
2023-02-27T02:59:21.244Z,102517.84
2023-02-27T03:02:02.919Z,102516.09
2023-02-27T03:04:40.004Z,102513.50
2023-02-27T03:07:22.256Z,102515.19
2023-02-27T03:10:00.943Z,102520.31
2023-02-27T03:12:30.723Z,102517.69
2023-02-27T03:15:06.120Z,102517.75
2023-02-27T03:17:54.066Z,102512.66
2023-02-27T03:20:58.920Z,102521.97
2023-02-27T03:23:31.590Z,102523.66
2023-02-27T03:25:59.982Z,102522.81
2023-02-27T03:28:31.624Z,102515.16
2023-02-27T03:31:07.695Z,102517.69
2023-02-27T03:33:42.038Z,102520.97
2023-02-27T03:36:17.984Z,102513.31
2023-02-27T03:39:22.134Z,102517.50
2023-02-27T03:41:56.928Z,102515.84
2023-02-27T03:44:45.194Z,102517.41
2023-02-27T03:47:11.847Z,102521.66
2023-02-27T03:49:38.571Z,102519.06
2023-02-27T03:52:05.144Z,102515.69
2023-02-27T03:54:46.164Z,102514.72
2023-02-27T03:57:15.310Z,102519.06
2023-02-27T03:59:42.223Z,102520.47
2023-02-27T04:02:09.617Z,102514.56
2023-02-27T04:04:36.188Z,102518.00
2023-02-27T04:07:24.748Z,102519.72
2023-02-27T04:10:06.566Z,102531.63
2023-02-27T04:12:45.599Z,102535.06
2023-02-27T04:15:24.775Z,102542.63
2023-02-27T04:18:16.237Z,102532.41
2023-02-27T04:20:47.685Z,102535.00
2023-02-27T04:23:21.387Z,102529.94
2023-02-27T04:26:29.189Z,102532.41
2023-02-27T04:29:06.108Z,102545.09
2023-02-27T04:31:38.435Z,102550.19
2023-02-27T04:34:38.774Z,102545.91
2023-02-27T04:37:21.752Z,102544.19
2023-02-27T04:39:53.955Z,102554.34
2023-02-27T04:42:26.019Z,102554.34
2023-02-27T04:44:58.168Z,102555.19
2023-02-27T04:47:27.283Z,102555.25
2023-02-27T04:50:04.404Z,102556.78
2023-02-27T04:52:36.917Z,102563.59
2023-02-27T04:55:33.437Z,102565.22
2023-02-27T04:58:07.862Z,102571.88
2023-02-27T05:00:37.687Z,102575.31
2023-02-27T05:03:19.486Z,102578.69
2023-02-27T05:05:48.658Z,102574.47
2023-02-27T05:08:22.389Z,102581.44
2023-02-27T05:11:00.892Z,102581.50
2023-02-27T05:13:32.171Z,102578.97
2023-02-27T05:16:09.007Z,102578.13
2023-02-27T05:18:36.230Z,102581.50
2023-02-27T05:21:15.314Z,102578.13
2023-02-27T05:23:58.432Z,102586.53
2023-02-27T05:26:43.152Z,102584.81
2023-02-27T05:29:12.687Z,102587.28
2023-02-27T05:31:42.284Z,102590.66
2023-02-27T05:34:23.982Z,102595.75
2023-02-27T05:37:00.044Z,102595.66
2023-02-27T05:39:32.697Z,102588.88
2023-02-27T05:42:05.458Z,102590.59
2023-02-27T05:44:40.225Z,102587.47
2023-02-27T05:47:12.980Z,102586.53
2023-02-27T05:49:47.767Z,102595.06
2023-02-27T05:52:19.445Z,102601.00
2023-02-27T05:54:48.980Z,102606.97
2023-02-27T05:57:21.213Z,102611.28
2023-02-27T05:59:57.531Z,102611.41
2023-02-27T06:02:25.691Z,102612.13
2023-02-27T06:04:52.272Z,102617.28
2023-02-27T06:07:19.036Z,102619.81
2023-02-27T06:09:46.291Z,102624.97
2023-02-27T06:12:13.071Z,102623.16
2023-02-27T06:14:39.653Z,102623.16
2023-02-27T06:17:06.302Z,102634.28
2023-02-27T06:19:32.804Z,102635.06
2023-02-27T06:21:59.316Z,102645.13
2023-02-27T06:24:26.862Z,102646.19
2023-02-27T06:26:53.975Z,102648.31
2023-02-27T06:29:20.470Z,102650.16
2023-02-27T06:31:47.064Z,102650.16
2023-02-27T06:34:13.614Z,102651.81
2023-02-27T06:36:40.366Z,102658.44
2023-02-27T06:39:06.903Z,102656.69
2023-02-27T06:41:33.400Z,102656.59
2023-02-27T06:44:00.340Z,102663.38
2023-02-27T06:46:27.377Z,102655.69
2023-02-27T06:48:54.135Z,102649.81
2023-02-27T06:51:20.720Z,102650.72
2023-02-27T06:53:48.840Z,102653.34
2023-02-27T06:56:15.462Z,102663.72
2023-02-27T06:58:42.122Z,102662.81
2023-02-27T07:01:08.830Z,102664.59
2023-02-27T07:03:35.703Z,102658.72
2023-02-27T07:06:02.881Z,102666.53
2023-02-27T07:08:29.526Z,102666.66
2023-02-27T07:10:56.230Z,102672.66
2023-02-27T07:13:24.479Z,102672.78
2023-02-27T07:15:52.312Z,102677.97
2023-02-27T07:18:20.411Z,102684.06
2023-02-27T07:20:50.013Z,102678.94
2023-02-27T07:23:16.596Z,102687.47
2023-02-27T07:25:43.267Z,102687.75
2023-02-27T07:28:09.821Z,102691.13
2023-02-27T07:30:36.320Z,102693.84
2023-02-27T07:33:03.214Z,102697.25
2023-02-27T07:35:29.714Z,102697.06
2023-02-27T07:37:56.310Z,102700.34
2023-02-27T07:40:22.857Z,102700.34
2023-02-27T07:42:52.725Z,102700.44
2023-02-27T07:45:19.773Z,102709.03
2023-02-27T07:47:46.718Z,102696.44
2023-02-27T07:50:14.277Z,102697.44
2023-02-27T07:58:03.970Z,102703.00
2023-02-27T08:00:30.829Z,102707.63
2023-02-27T08:02:57.402Z,102705.94
2023-02-27T08:05:24.352Z,102706.22
2023-02-27T08:07:53.484Z,102705.50
2023-02-27T08:10:20.356Z,102707.09
2023-02-27T08:12:47.019Z,102705.75
2023-02-27T08:15:13.765Z,102704.34
2023-02-27T08:17:40.288Z,102706.03
2023-02-27T08:20:07.880Z,102700.28
2023-02-27T08:22:34.401Z,102706.09
2023-02-27T08:25:01.417Z,102713.16
2023-02-27T08:27:27.944Z,102714.03
2023-02-27T08:29:54.488Z,102710.13
2023-02-27T08:32:21.254Z,102710.34
2023-02-27T08:34:48.008Z,102707.13
2023-02-27T08:37:14.548Z,102708.69
2023-02-27T08:39:41.102Z,102708.00
2023-02-27T08:42:07.928Z,102708.91
2023-02-27T08:44:34.486Z,102713.53
2023-02-27T08:47:00.988Z,102708.19
2023-02-27T08:49:27.585Z,102718.16
2023-02-27T08:51:54.527Z,102711.63
2023-02-27T08:54:21.168Z,102710.16
2023-02-27T08:56:47.941Z,102711.16
2023-02-27T08:59:15.300Z,102707.72
2023-02-27T09:01:42.604Z,102711.47
2023-02-27T09:04:09.867Z,102713.13
2023-02-27T09:06:36.952Z,102713.34
2023-02-27T09:09:04.298Z,102716.78
2023-02-27T09:11:31.245Z,102711.91
2023-02-27T09:13:58.922Z,102710.44
2023-02-27T09:16:26.034Z,102715.66
2023-02-27T09:18:52.874Z,102713.16
2023-02-27T09:21:20.449Z,102709.75
2023-02-27T09:23:47.037Z,102710.72
2023-02-27T09:26:13.646Z,102718.41
2023-02-27T09:28:40.167Z,102715.72
2023-02-27T09:31:08.109Z,102714.84
2023-02-27T09:33:35.437Z,102715.78
2023-02-27T09:36:02.046Z,102722.59
2023-02-27T09:38:31.571Z,102710.53
2023-02-27T09:40:59.649Z,102711.38
2023-02-27T09:43:50.649Z,102709.84
2023-02-27T09:46:21.645Z,102713.25
2023-02-27T09:48:53.530Z,102714.03
2023-02-27T09:51:21.196Z,102709.75
2023-02-27T09:53:51.294Z,102702.88
2023-02-27T09:56:26.658Z,102711.63
2023-02-27T09:59:22.789Z,102707.59
2023-02-27T10:02:06.661Z,102703.47
2023-02-27T10:05:10.425Z,102717.91
2023-02-27T10:07:40.191Z,102717.88
2023-02-27T10:10:24.853Z,102704.13
2023-02-27T10:12:59.794Z,102707.59
2023-02-27T10:15:31.169Z,102703.63
2023-02-27T10:18:23.608Z,102707.31
2023-02-27T10:21:22.337Z,102699.72
2023-02-27T10:23:55.366Z,102704.09
2023-02-27T10:26:31.302Z,102694.84
2023-02-27T10:29:14.057Z,102696.69
2023-02-27T10:31:42.006Z,102707.06
2023-02-27T10:34:12.798Z,102695.88
2023-02-27T10:36:43.344Z,102697.59
2023-02-27T10:39:16.845Z,102707.19
2023-02-27T10:41:45.398Z,102702.25
2023-02-27T10:44:16.407Z,102703.25
2023-02-27T10:46:43.357Z,102706.72
2023-02-27T10:49:18.765Z,102709.91
2023-02-27T10:52:05.177Z,102705.63
2023-02-27T10:54:31.867Z,102703.03
2023-02-27T10:57:02.469Z,102701.28
2023-02-27T10:59:41.828Z,102697.91
2023-02-27T11:02:17.732Z,102701.53
2023-02-27T11:04:59.856Z,102696.41
2023-02-27T11:07:33.892Z,102705.22
2023-02-27T11:10:03.818Z,102689.81
2023-02-27T11:12:34.964Z,102695.72
2023-02-27T11:15:24.147Z,102685.38
2023-02-27T11:17:50.659Z,102693.84
2023-02-27T11:20:37.774Z,102690.28
2023-02-27T11:23:24.542Z,102691.91
2023-02-27T11:25:51.609Z,102691.00
2023-02-27T11:28:26.672Z,102682.44
2023-02-27T11:31:03.658Z,102683.22
2023-02-27T11:33:39.268Z,102683.22
2023-02-27T11:36:06.578Z,102679.78
2023-02-27T11:38:34.833Z,102670.50
2023-02-27T11:41:07.719Z,102684.97
2023-02-27T11:43:49.495Z,102679.81
2023-02-27T11:46:46.647Z,102669.56
2023-02-27T11:49:34.155Z,102672.97
2023-02-27T11:52:11.572Z,102672.97
2023-02-27T11:54:43.126Z,102662.81
2023-02-27T11:57:38.157Z,102662.00
2023-02-27T12:00:14.264Z,102643.28
2023-02-27T12:03:03.888Z,102643.34
2023-02-27T12:05:39.580Z,102636.63
2023-02-27T12:08:14.130Z,102630.75
2023-02-27T12:11:12.990Z,102629.19
2023-02-27T12:13:44.821Z,102623.22
2023-02-27T12:16:22.055Z,102627.53
2023-02-27T12:18:56.116Z,102627.59
2023-02-27T12:21:28.411Z,102631.09
2023-02-27T12:24:14.808Z,102629.31
2023-02-27T12:26:45.033Z,102634.38
2023-02-27T12:29:28.594Z,102631.81
2023-02-27T12:32:16.557Z,102625.06
2023-02-27T12:35:09.623Z,102639.69
2023-02-27T12:37:38.062Z,102632.78
2023-02-27T12:40:12.976Z,102631.16
2023-02-27T12:42:49.160Z,102629.44
2023-02-27T12:45:26.298Z,102623.47
2023-02-27T12:48:03.951Z,102640.44
2023-02-27T12:50:55.565Z,102629.25
2023-02-27T12:53:42.561Z,102638.84
2023-02-27T12:56:42.187Z,102626.88
2023-02-27T12:59:21.348Z,102624.41
2023-02-27T13:02:00.546Z,102609.94
2023-02-27T13:04:57.903Z,102615.06
2023-02-27T13:07:30.314Z,102602.44
2023-02-27T13:10:02.170Z,102603.28
2023-02-27T13:12:31.913Z,102604.22
2023-02-27T13:15:33.307Z,102604.91
2023-02-27T13:18:16.203Z,102599.81
2023-02-27T13:21:09.006Z,102604.97
2023-02-27T13:23:51.888Z,102602.31
2023-02-27T13:26:27.257Z,102608.22
2023-02-27T13:28:54.795Z,102604.81
2023-02-27T13:31:42.477Z,102608.25
2023-02-27T13:34:22.209Z,102608.34
2023-02-27T13:37:01.063Z,102611.84
2023-02-27T13:39:46.727Z,102600.00
2023-02-27T13:42:29.326Z,102587.25
2023-02-27T13:45:02.095Z,102594.19
2023-02-27T13:47:46.749Z,102590.75
2023-02-27T13:50:21.269Z,102587.41
2023-02-27T13:52:48.198Z,102582.09
2023-02-27T13:55:36.982Z,102600.03
2023-02-27T13:58:05.876Z,102589.72
2023-02-27T14:00:35.600Z,102587.22
2023-02-27T14:03:18.850Z,102576.94
2023-02-27T14:05:47.366Z,102583.88
2023-02-27T14:08:24.687Z,102585.53
2023-02-27T14:11:01.166Z,102578.69
2023-02-27T14:13:51.012Z,102575.16
2023-02-27T14:16:40.040Z,102583.72
2023-02-27T14:19:15.622Z,102579.44
2023-02-27T14:21:51.431Z,102580.28
2023-02-27T14:24:20.581Z,102579.38
2023-02-27T14:26:47.539Z,102572.59
2023-02-27T14:29:20.742Z,102587.09
2023-02-27T14:31:54.180Z,102592.22
2023-02-27T14:34:22.721Z,102574.22
2023-02-27T14:36:55.169Z,102584.50
2023-02-27T14:39:35.152Z,102589.72
2023-02-27T14:42:31.196Z,102588.00
2023-02-27T14:44:58.347Z,102599.09
2023-02-27T14:47:37.801Z,102590.50
2023-02-27T14:50:08.067Z,102591.31
2023-02-27T14:52:43.252Z,102588.75
2023-02-27T14:55:28.681Z,102577.56
2023-02-27T14:58:01.467Z,102581.94
2023-02-27T15:00:39.372Z,102573.44
2023-02-27T15:03:34.762Z,102571.72
2023-02-27T15:06:03.952Z,102580.31
2023-02-27T15:08:39.963Z,102576.06
2023-02-27T15:11:07.550Z,102571.75
2023-02-27T15:13:39.523Z,102587.94
2023-02-27T15:16:28.998Z,102569.00
2023-02-27T15:19:02.256Z,102583.59
2023-02-27T15:21:38.052Z,102586.97
2023-02-27T15:24:11.101Z,102592.06
2023-02-27T15:26:40.899Z,102595.44
2023-02-27T15:29:08.670Z,102605.75
2023-02-27T15:31:38.055Z,102598.81
2023-02-27T15:34:04.955Z,102599.66
2023-02-27T15:36:37.626Z,102596.31
2023-02-27T15:39:24.474Z,102593.84
2023-02-27T15:41:56.672Z,102588.69
2023-02-27T15:44:45.357Z,102597.25
2023-02-27T15:47:34.450Z,102597.28
2023-02-27T15:50:07.124Z,102588.69
2023-02-27T15:52:41.686Z,102588.69
2023-02-27T15:55:17.490Z,102590.41
2023-02-27T15:58:02.045Z,102592.13
2023-02-27T16:00:31.836Z,102604.88
2023-02-27T16:03:02.543Z,102608.22
2023-02-27T16:05:38.068Z,102605.56
2023-02-27T16:08:17.533Z,102605.56
2023-02-27T16:11:09.869Z,102603.84
2023-02-27T16:14:08.526Z,102607.19
2023-02-27T16:16:39.005Z,102608.88
2023-02-27T16:25:19.554Z,102616.69
2023-02-27T16:27:50.251Z,102614.13
2023-02-27T16:30:18.797Z,102608.94
2023-02-27T16:32:45.648Z,102615.75
2023-02-27T16:35:30.581Z,102617.47
2023-02-27T16:38:41.725Z,102610.56
2023-02-27T16:41:11.384Z,102612.22
2023-02-27T16:43:38.289Z,102612.19
2023-02-27T16:46:04.950Z,102612.97
2023-02-27T16:48:31.512Z,102622.41
2023-02-27T16:50:58.161Z,102620.63
2023-02-27T16:53:24.819Z,102623.22
2023-02-27T16:55:51.787Z,102617.13
2023-02-27T16:58:18.981Z,102623.09
2023-02-27T17:00:45.703Z,102625.69
2023-02-27T17:03:12.475Z,102617.00
2023-02-27T17:05:39.505Z,102634.06
2023-02-27T17:08:06.337Z,102628.91
2023-02-27T17:10:33.564Z,102632.22
2023-02-27T17:13:00.186Z,102639.16
2023-02-27T17:15:29.535Z,102634.81
2023-02-27T17:17:56.386Z,102642.47
2023-02-27T17:20:24.698Z,102642.44
2023-02-27T17:22:51.446Z,102641.53
2023-02-27T17:25:18.286Z,102646.63
2023-02-27T17:27:47.609Z,102650.03
2023-02-27T17:30:14.851Z,102650.88
2023-02-27T17:32:41.786Z,102659.38
2023-02-27T17:35:09.663Z,102660.22
2023-02-27T17:37:36.713Z,102659.38
2023-02-27T17:40:06.065Z,102667.88
2023-02-27T17:42:32.786Z,102682.41
2023-02-27T17:44:59.827Z,102679.78
2023-02-27T17:47:26.348Z,102679.75
2023-02-27T17:49:53.499Z,102681.47
2023-02-27T17:52:20.385Z,102684.00
2023-02-27T17:54:47.130Z,102683.06
2023-02-27T17:57:13.860Z,102677.91
2023-02-27T17:59:41.118Z,102677.91
2023-02-27T18:02:10.136Z,102687.31
2023-02-27T18:04:37.188Z,102691.63
2023-02-27T18:07:04.025Z,102695.81
2023-02-27T18:09:30.863Z,102695.78
2023-02-27T18:11:58.484Z,102699.16
2023-02-27T18:14:25.847Z,102700.88
2023-02-27T18:16:52.604Z,102696.63
2023-02-27T18:19:19.850Z,102701.72
2023-02-27T18:21:47.336Z,102699.97
2023-02-27T18:24:15.920Z,102711.06
2023-02-27T18:26:43.846Z,102705.91
2023-02-27T18:29:11.585Z,102714.47
2023-02-27T18:31:41.394Z,102710.94
2023-02-27T18:34:08.686Z,102713.53
2023-02-27T18:36:36.412Z,102713.47
2023-02-27T18:39:05.158Z,102710.84
2023-02-27T18:41:33.150Z,102709.94
2023-02-27T18:43:59.887Z,102715.13
2023-02-27T18:46:27.413Z,102713.38
2023-02-27T18:48:54.570Z,102707.31
2023-02-27T18:51:21.377Z,102721.88
2023-02-27T18:53:49.692Z,102721.03
2023-02-27T18:56:19.574Z,102720.19
2023-02-27T18:58:46.460Z,102720.22
2023-02-27T19:01:20.116Z,102715.03
2023-02-27T19:03:46.743Z,102718.44
2023-02-27T19:06:13.579Z,102717.50
2023-02-27T19:08:40.159Z,102716.69
2023-02-27T19:11:06.771Z,102710.72
2023-02-27T19:13:33.323Z,102714.91
2023-02-27T19:16:04.778Z,102717.47
2023-02-27T19:18:31.754Z,102721.72
2023-02-27T19:21:03.536Z,102720.03
2023-02-27T19:23:30.668Z,102716.50
2023-02-27T19:26:00.896Z,102717.31
2023-02-27T19:28:27.704Z,102728.44
2023-02-27T19:30:54.560Z,102726.72
2023-02-27T19:33:21.332Z,102725.81
2023-02-27T19:35:48.015Z,102727.50
2023-02-27T19:38:14.627Z,102725.72
2023-02-27T19:40:41.349Z,102722.25
2023-02-27T19:43:08.016Z,102721.44
2023-02-27T19:45:34.676Z,102728.25
2023-02-27T19:48:01.949Z,102728.25
2023-02-27T19:50:30.283Z,102721.38
2023-02-27T19:52:56.895Z,102729.03
2023-02-27T19:55:23.522Z,102728.16
2023-02-27T19:57:50.106Z,102726.44
2023-02-27T20:00:17.578Z,102728.97
2023-02-27T20:02:44.249Z,102727.22
2023-02-27T20:05:12.170Z,102725.53
2023-02-27T20:07:39.277Z,102729.84
2023-02-27T20:10:06.149Z,102729.88
2023-02-27T20:12:32.851Z,102730.72
2023-02-27T20:14:59.510Z,102724.84
2023-02-27T20:17:26.164Z,102721.44
2023-02-27T20:19:52.738Z,102727.44
2023-02-27T20:22:19.410Z,102724.84
2023-02-27T20:24:46.559Z,102719.72
2023-02-27T20:27:15.245Z,102726.53
2023-02-27T20:29:41.921Z,102719.72
2023-02-27T20:32:09.081Z,102729.94
2023-02-27T20:34:36.047Z,102731.69
2023-02-27T20:37:03.303Z,102724.72
2023-02-27T20:39:29.945Z,102720.50
2023-02-27T20:41:56.758Z,102727.41
2023-02-27T20:44:23.390Z,102726.53
2023-02-27T20:46:50.078Z,102721.31
2023-02-27T20:49:17.037Z,102724.75
2023-02-27T20:51:47.772Z,102718.72
2023-02-27T20:54:20.275Z,102720.38
2023-02-27T20:56:51.643Z,102715.19
2023-02-27T20:59:19.800Z,102718.56
2023-02-27T21:01:51.541Z,102719.44
2023-02-27T21:04:24.059Z,102712.53
2023-02-27T21:06:51.602Z,102718.53
2023-02-27T21:09:19.282Z,102713.31
2023-02-27T21:11:45.864Z,102713.25
2023-02-27T21:14:13.276Z,102710.66
2023-02-27T21:16:40.646Z,102719.16
2023-02-27T21:19:08.217Z,102719.13
2023-02-27T21:21:35.358Z,102713.94
2023-02-27T21:24:02.190Z,102715.66
2023-02-27T21:26:41.599Z,102714.78
2023-02-27T21:29:14.448Z,102719.91
2023-02-27T21:31:45.254Z,102718.16
2023-02-27T21:34:14.356Z,102725.06
2023-02-27T21:36:43.109Z,102725.00
2023-02-27T21:39:27.199Z,102725.81
2023-02-27T21:41:54.810Z,102732.66
2023-02-27T21:44:25.168Z,102731.78
2023-02-27T21:46:53.738Z,102738.63
2023-02-27T21:49:24.124Z,102738.56
2023-02-27T21:51:51.126Z,102729.94
2023-02-27T21:54:18.957Z,102741.16
2023-02-27T21:56:47.212Z,102731.66
2023-02-27T21:59:14.796Z,102734.22
2023-02-27T22:01:47.102Z,102730.78
2023-02-27T22:04:15.146Z,102729.03
2023-02-27T22:06:41.884Z,102733.19
2023-02-27T22:09:08.454Z,102728.03
2023-02-27T22:11:35.418Z,102731.44
2023-02-27T22:14:02.901Z,102728.75
2023-02-27T22:16:29.473Z,102727.94
2023-02-27T22:18:55.966Z,102725.34
2023-02-27T22:21:25.357Z,102734.69
2023-02-27T22:23:55.283Z,102733.78
2023-02-27T22:26:28.277Z,102726.00
2023-02-27T22:28:59.641Z,102737.16
2023-02-27T22:31:29.642Z,102740.56
2023-02-27T22:34:01.020Z,102741.44
2023-02-27T22:36:29.318Z,102741.44
2023-02-27T22:38:56.544Z,102743.06
2023-02-27T22:41:26.385Z,102743.06
2023-02-27T22:43:53.308Z,102746.53
2023-02-27T22:46:28.784Z,102749.06
2023-02-27T22:49:32.462Z,102746.47
2023-02-27T22:51:58.955Z,102748.94
2023-02-27T22:54:25.493Z,102748.88
2023-02-27T22:56:53.522Z,102742.03
2023-02-27T22:59:20.535Z,102744.47
2023-02-27T23:01:48.597Z,102744.41
2023-02-27T23:04:17.335Z,102745.19
2023-02-27T23:06:44.543Z,102757.13
2023-02-27T23:09:20.944Z,102752.00
2023-02-27T23:11:47.853Z,102751.16
2023-02-27T23:14:14.637Z,102757.13
2023-02-27T23:16:45.631Z,102758.81
2023-02-27T23:19:15.118Z,102763.88
2023-02-27T23:21:41.912Z,102765.50
2023-02-27T23:24:11.988Z,102763.75
2023-02-27T23:26:43.857Z,102770.59
2023-02-27T23:29:10.603Z,102776.56
2023-02-27T23:31:38.039Z,102772.22
2023-02-27T23:34:06.008Z,102773.97
2023-02-27T23:36:34.135Z,102773.84
2023-02-27T23:39:02.991Z,102773.78
2023-02-27T23:41:30.359Z,102773.72
2023-02-27T23:44:15.667Z,102774.50
2023-02-27T23:46:42.331Z,102778.75
2023-02-27T23:49:09.078Z,102775.34
2023-02-27T23:51:36.135Z,102770.16
2023-02-27T23:54:03.604Z,102778.72
2023-02-27T23:56:31.104Z,102771.84
2023-02-27T23:59:01.122Z,102778.63
